Terminal Aerodrome Forecast
Issued by NWS

Current Version | Previous Version | Text Only | Print | Product List | Glossary On
Versions: 1 2 3 4 5 6 7 8 9 10 11 12 13 14 15 16 17 18 19 20 21 22 23 24 25 26 27 28 29 30 31 32 33 34 35 36 37 38
000
FTUS41 KBTV 300952 AAA
TAFPBG
TAF AMD
KPBG 300952Z 3010/3106 VRB03KT 3SM BR SKC
      TEMPO 3010/3011 2SM BR
     FM301200 15008KT P6SM SKC
     FM301600 17009KT 6SM -TSRA BR SCT050CB BKN120
     FM301800 22006KT P6SM SCT070 SCT250
     FM310000 20003KT P6SM SKC=

USA.gov is the U.S. government's official web portal to all federal, state and local government web resources and services.